TimeCST,TemperatureF,Dew PointF,Humidity,Sea Level PressureIn,VisibilityMPH,Wind Direction,Wind SpeedMPH,Gust SpeedMPH,PrecipitationIn,Events,Conditions,WindDirDegrees,DateUTC
12:15 AM,33.8,23.7,67,30.16,10.0,NNE,10.4,-,N/A,,Overcast,30,2012-11-26 06:15:00
12:35 AM,33.1,23.4,67,30.16,10.0,NNE,8.1,-,N/A,,Overcast,20,2012-11-26 06:35:00
12:55 AM,32.7,23.0,67,30.17,10.0,NNE,10.4,-,N/A,,Overcast,30,2012-11-26 06:55:00
1:15 AM,32.4,23.2,69,30.15,10.0,NNE,10.4,-,N/A,,Overcast,30,2012-11-26 07:15:00
1:35 AM,32.2,23.4,70,30.16,10.0,NNE,12.7,-,N/A,,Overcast,30,2012-11-26 07:35:00
1:55 AM,32.2,23.5,70,30.17,10.0,North,10.4,-,N/A,,Overcast,10,2012-11-26 07:55:00
2:15 AM,32.2,23.4,70,30.17,10.0,North,8.1,-,N/A,,Overcast,10,2012-11-26 08:15:00
2:35 AM,32.2,23.2,69,30.18,10.0,North,11.5,17.3,N/A,,Overcast,10,2012-11-26 08:35:00
2:55 AM,32.0,23.5,71,30.19,10.0,North,11.5,-,N/A,,Overcast,10,2012-11-26 08:55:00
3:15 AM,32.0,23.7,71,30.20,10.0,NNE,16.1,-,N/A,,Overcast,20,2012-11-26 09:15:00
3:35 AM,31.8,23.0,70,30.20,10.0,NNE,15.0,20.7,N/A,,Overcast,20,2012-11-26 09:35:00
3:55 AM,31.5,23.4,72,30.21,10.0,NNE,16.1,20.7,N/A,,Overcast,20,2012-11-26 09:55:00
4:15 AM,31.1,23.7,74,30.20,10.0,North,13.8,19.6,N/A,,Overcast,10,2012-11-26 10:15:00
4:35 AM,30.7,24.1,76,30.21,10.0,North,12.7,24.2,N/A,,Overcast,360,2012-11-26 10:35:00
4:55 AM,30.2,24.8,80,30.22,10.0,North,10.4,16.1,N/A,,Overcast,10,2012-11-26 10:55:00
5:15 AM,29.8,24.8,81,30.23,7.0,North,12.7,20.7,N/A,,Overcast,360,2012-11-26 11:15:00
5:35 AM,29.5,24.8,83,30.25,7.0,North,15.0,20.7,N/A,Snow,Light Snow,350,2012-11-26 11:35:00
5:55 AM,28.6,24.4,84,30.26,3.0,North,12.7,-,N/A,Snow,Light Snow,350,2012-11-26 11:55:00
6:15 AM,27.5,23.5,85,30.27,3.0,North,11.5,18.4,N/A,Snow,Light Snow,350,2012-11-26 12:15:00
6:35 AM,27.1,23.0,84,30.28,2.0,North,13.8,-,N/A,Snow,Light Snow,350,2012-11-26 12:35:00
6:55 AM,26.6,23.0,86,30.30,2.0,North,13.8,21.9,N/A,Snow,Light Snow,350,2012-11-26 12:55:00
7:15 AM,25.7,22.1,86,30.32,2.5,North,10.4,17.3,N/A,Snow,Light Snow,350,2012-11-26 13:15:00
7:35 AM,24.8,21.0,86,30.32,1.5,North,13.8,18.4,N/A,Snow,Light Snow,360,2012-11-26 13:35:00
7:55 AM,23.9,19.9,85,30.33,1.8,North,15.0,19.6,N/A,Snow,Light Snow,360,2012-11-26 13:55:00
8:15 AM,23.9,20.3,86,30.35,2.0,North,10.4,16.1,N/A,Snow,Light Snow,350,2012-11-26 14:15:00
8:35 AM,23.5,19.4,84,30.37,2.0,North,13.8,23.0,N/A,Snow,Light Snow,360,2012-11-26 14:35:00
8:55 AM,23.5,19.0,83,30.38,4.0,North,15.0,-,N/A,Snow,Light Snow,360,2012-11-26 14:55:00
9:15 AM,23.0,18.1,82,30.39,7.0,North,11.5,19.6,N/A,Snow,Light Snow,350,2012-11-26 15:15:00
9:35 AM,23.0,17.4,79,30.40,5.0,North,11.5,-,N/A,,Haze,350,2012-11-26 15:35:00
9:55 AM,23.7,15.8,72,30.41,10.0,North,16.1,21.9,N/A,,Overcast,350,2012-11-26 15:55:00
10:15 AM,23.4,14.9,70,30.42,7.0,North,12.7,-,N/A,,Overcast,360,2012-11-26 16:15:00
10:35 AM,23.5,13.8,66,30.43,10.0,North,16.1,21.9,N/A,,Overcast,360,2012-11-26 16:35:00
10:55 AM,23.9,14.4,67,30.44,10.0,North,8.1,16.1,N/A,,Overcast,350,2012-11-26 16:55:00
11:15 AM,23.9,14.0,66,30.44,10.0,North,12.7,-,N/A,,Overcast,350,2012-11-26 17:15:00
11:35 AM,23.9,14.4,67,30.44,10.0,North,11.5,-,N/A,,Overcast,350,2012-11-26 17:35:00
11:55 AM,23.7,14.2,67,30.44,10.0,NNW,9.2,-,N/A,,Overcast,340,2012-11-26 17:55:00
12:15 PM,25.3,15.4,66,30.44,10.0,NNW,9.2,-,N/A,,Mostly Cloudy,340,2012-11-26 18:15:00
12:35 PM,25.5,15.3,65,30.42,10.0,NNW,11.5,-,N/A,,Scattered Clouds,340,2012-11-26 18:35:00
12:55 PM,26.2,16.0,65,30.42,10.0,North,11.5,-,N/A,,Clear,350,2012-11-26 18:55:00
1:15 PM,26.6,16.2,65,30.42,10.0,NNW,10.4,-,N/A,,Clear,340,2012-11-26 19:15:00
1:35 PM,26.6,16.9,67,30.42,10.0,NW,13.8,-,N/A,,Clear,320,2012-11-26 19:35:00
1:55 PM,27.3,17.2,66,30.41,10.0,NNW,10.4,-,N/A,,Clear,340,2012-11-26 19:55:00
2:15 PM,28.2,17.2,63,30.41,10.0,North,9.2,-,N/A,,Clear,350,2012-11-26 20:15:00
2:35 PM,28.0,17.1,63,30.40,10.0,North,9.2,-,N/A,,Clear,350,2012-11-26 20:35:00
2:55 PM,28.2,16.7,62,30.40,10.0,North,10.4,-,N/A,,Clear,350,2012-11-26 20:55:00
3:15 PM,28.6,17.8,64,30.39,10.0,NNW,10.4,-,N/A,,Clear,340,2012-11-26 21:15:00
3:35 PM,28.4,17.1,63,30.40,10.0,NW,8.1,-,N/A,,Clear,320,2012-11-26 21:35:00
3:55 PM,28.4,17.2,63,30.39,10.0,NNW,5.8,-,N/A,,Clear,340,2012-11-26 21:55:00
4:15 PM,28.0,17.4,64,30.39,10.0,NW,8.1,-,N/A,,Clear,310,2012-11-26 22:15:00
4:35 PM,27.1,17.4,67,30.40,10.0,NW,5.8,-,N/A,,Clear,310,2012-11-26 22:35:00
4:55 PM,25.3,16.7,70,30.39,10.0,NW,5.8,-,N/A,,Clear,320,2012-11-26 22:55:00
5:15 PM,23.0,16.3,76,30.40,10.0,Calm,Calm,-,N/A,,Clear,0,2012-11-26 23:15:00
5:35 PM,22.8,16.0,75,30.40,10.0,Calm,Calm,-,N/A,,Clear,0,2012-11-26 23:35:00
5:55 PM,21.9,15.3,76,30.40,10.0,Calm,Calm,-,N/A,,Clear,0,2012-11-26 23:55:00
6:15 PM,19.8,14.0,78,30.41,10.0,Calm,Calm,-,N/A,,Clear,0,2012-11-27 00:15:00
6:35 PM,19.4,14.0,80,30.41,10.0,Calm,Calm,-,N/A,,Clear,0,2012-11-27 00:35:00
6:55 PM,17.8,12.2,79,30.40,10.0,Calm,Calm,-,N/A,,Clear,0,2012-11-27 00:55:00
7:15 PM,16.3,12.4,84,30.40,10.0,Calm,Calm,-,N/A,,Clear,0,2012-11-27 01:15:00
7:35 PM,16.9,13.6,87,30.40,7.0,NNW,3.5,-,N/A,,Clear,330,2012-11-27 01:35:00
7:55 PM,16.9,12.7,84,30.40,5.0,NNW,3.5,-,N/A,,Clear,330,2012-11-27 01:55:00
8:15 PM,12.7,8.4,83,30.40,7.0,Calm,Calm,-,N/A,,Clear,0,2012-11-27 02:15:00
8:35 PM,12.9,10.0,88,30.40,7.0,Calm,Calm,-,N/A,,Clear,0,2012-11-27 02:35:00
8:55 PM,11.7,8.2,86,30.39,7.0,NNW,3.5,-,N/A,,Clear,340,2012-11-27 02:55:00
9:15 PM,12.2,9.0,87,30.40,5.0,Calm,Calm,-,N/A,,Clear,0,2012-11-27 03:15:00
9:35 PM,10.9,7.0,84,30.40,7.0,Calm,Calm,-,N/A,,Clear,0,2012-11-27 03:35:00
9:55 PM,10.6,7.5,87,30.40,7.0,SSE,3.5,-,N/A,,Clear,150,2012-11-27 03:55:00
10:15 PM,12.6,9.3,87,30.39,10.0,SE,3.5,-,N/A,,Clear,140,2012-11-27 04:15:00
10:55 PM,12.6,9.5,88,30.39,10.0,Calm,Calm,-,N/A,,Clear,0,2012-11-27 04:55:00
11:15 PM,14.4,11.5,88,30.38,10.0,Calm,Calm,-,N/A,,Clear,0,2012-11-27 05:15:00
11:35 PM,14.0,11.3,89,30.38,10.0,Calm,Calm,-,N/A,,Clear,0,2012-11-27 05:35:00
11:55 PM,14.2,11.5,89,30.38,10.0,Calm,Calm,-,N/A,,Clear,0,2012-11-27 05:55:00